sensor_id;sensor_type;location;lat;lon;timestamp;temperature;humidity
9537;DHT22;4807;48.024;11.726;2022-12-18T00:01:57;-3.60;99.90
9537;DHT22;4807;48.024;11.726;2022-12-18T00:05:07;-3.60;99.90
9537;DHT22;4807;48.024;11.726;2022-12-18T00:08:15;-3.70;99.90
9537;DHT22;4807;48.024;11.726;2022-12-18T00:11:28;-3.70;99.90
9537;DHT22;4807;48.024;11.726;2022-12-18T00:14:38;-3.80;99.90
9537;DHT22;4807;48.024;11.726;2022-12-18T00:17:50;-3.80;99.90
9537;DHT22;4807;48.024;11.726;2022-12-18T00:20:59;-3.80;99.90
9537;DHT22;4807;48.024;11.726;2022-12-18T00:24:09;-3.70;99.90
9537;DHT22;4807;48.024;11.726;2022-12-18T00:27:20;-3.80;99.90
9537;DHT22;4807;48.024;11.726;2022-12-18T00:30:28;-3.80;99.90
9537;DHT22;4807;48.024;11.726;2022-12-18T00:33:37;-3.90;99.90
9537;DHT22;4807;48.024;11.726;2022-12-18T00:36:49;-3.90;99.90
9537;DHT22;4807;48.024;11.726;2022-12-18T00:39:57;-4.00;99.90
9537;DHT22;4807;48.024;11.726;2022-12-18T00:43:09;-3.90;99.90
9537;DHT22;4807;48.024;11.726;2022-12-18T00:46:17;-3.90;99.90
9537;DHT22;4807;48.024;11.726;2022-12-18T00:49:27;-3.90;99.90
9537;DHT22;4807;48.024;11.726;2022-12-18T00:52:35;-4.00;99.90
9537;DHT22;4807;48.024;11.726;2022-12-18T00:55:44;-3.90;99.90
9537;DHT22;4807;48.024;11.726;2022-12-18T00:58:55;-4.00;99.90
9537;DHT22;4807;48.024;11.726;2022-12-18T01:02:03;-4.00;99.90
9537;DHT22;4807;48.024;11.726;2022-12-18T01:05:12;-4.00;99.90
9537;DHT22;4807;48.024;11.726;2022-12-18T01:08:21;-4.00;99.90
9537;DHT22;4807;48.024;11.726;2022-12-18T01:11:29;-4.00;99.90
9537;DHT22;4807;48.024;11.726;2022-12-18T01:14:39;-4.00;99.90
9537;DHT22;4807;48.024;11.726;2022-12-18T01:17:47;-4.00;99.90
9537;DHT22;4807;48.024;11.726;2022-12-18T01:20:56;-4.00;99.90
9537;DHT22;4807;48.024;11.726;2022-12-18T01:24:05;-4.10;99.90
9537;DHT22;4807;48.024;11.726;2022-12-18T01:27:14;-4.20;99.90
9537;DHT22;4807;48.024;11.726;2022-12-18T01:30:23;-4.20;99.90
9537;DHT22;4807;48.024;11.726;2022-12-18T01:33:32;-4.20;99.90
9537;DHT22;4807;48.024;11.726;2022-12-18T01:36:41;-4.20;99.90
9537;DHT22;4807;48.024;11.726;2022-12-18T01:39:49;-4.20;99.90
9537;DHT22;4807;48.024;11.726;2022-12-18T01:46:42;-4.10;99.90
9537;DHT22;4807;48.024;11.726;2022-12-18T01:49:50;-4.00;99.90
9537;DHT22;4807;48.024;11.726;2022-12-18T01:53:03;-3.90;99.90
9537;DHT22;4807;48.024;11.726;2022-12-18T01:56:16;-3.90;99.90
9537;DHT22;4807;48.024;11.726;2022-12-18T01:59:26;-3.90;99.90
9537;DHT22;4807;48.024;11.726;2022-12-18T02:02:39;-3.90;99.90
9537;DHT22;4807;48.024;11.726;2022-12-18T02:05:53;-3.90;99.90
9537;DHT22;4807;48.024;11.726;2022-12-18T02:09:12;-3.90;99.90
9537;DHT22;4807;48.024;11.726;2022-12-18T02:12:32;-3.90;99.90
9537;DHT22;4807;48.024;11.726;2022-12-18T02:15:51;-3.90;99.90
9537;DHT22;4807;48.024;11.726;2022-12-18T02:19:21;-4.00;99.90
9537;DHT22;4807;48.024;11.726;2022-12-18T02:22:57;-4.00;99.90
9537;DHT22;4807;48.024;11.726;2022-12-18T02:26:19;-3.90;99.90
9537;DHT22;4807;48.024;11.726;2022-12-18T02:29:37;-3.90;99.90
9537;DHT22;4807;48.024;11.726;2022-12-18T02:32:50;-3.90;99.90
9537;DHT22;4807;48.024;11.726;2022-12-18T02:36:03;-3.90;99.90
9537;DHT22;4807;48.024;11.726;2022-12-18T02:39:14;-3.80;99.90
9537;DHT22;4807;48.024;11.726;2022-12-18T02:42:37;-3.90;99.90
9537;DHT22;4807;48.024;11.726;2022-12-18T02:45:50;-3.70;99.90
9537;DHT22;4807;48.024;11.726;2022-12-18T02:49:08;-3.70;99.90
9537;DHT22;4807;48.024;11.726;2022-12-18T02:52:31;-3.70;99.90
9537;DHT22;4807;48.024;11.726;2022-12-18T02:55:53;-3.70;99.90
9537;DHT22;4807;48.024;11.726;2022-12-18T02:59:11;-3.80;99.90
9537;DHT22;4807;48.024;11.726;2022-12-18T03:02:37;-3.70;99.90
9537;DHT22;4807;48.024;11.726;2022-12-18T03:05:55;-3.70;99.90
9537;DHT22;4807;48.024;11.726;2022-12-18T03:09:11;-3.80;99.90
9537;DHT22;4807;48.024;11.726;2022-12-18T03:12:27;-3.70;99.90
9537;DHT22;4807;48.024;11.726;2022-12-18T03:15:44;-3.80;99.90
9537;DHT22;4807;48.024;11.726;2022-12-18T03:19:01;-3.70;99.90
9537;DHT22;4807;48.024;11.726;2022-12-18T03:22:12;-3.80;99.90
9537;DHT22;4807;48.024;11.726;2022-12-18T03:25:28;-3.80;99.90
9537;DHT22;4807;48.024;11.726;2022-12-18T03:28:45;-3.80;99.90
9537;DHT22;4807;48.024;11.726;2022-12-18T03:32:03;-3.80;99.90
9537;DHT22;4807;48.024;11.726;2022-12-18T03:35:20;-3.80;99.90
9537;DHT22;4807;48.024;11.726;2022-12-18T03:38:32;-3.80;99.90
9537;DHT22;4807;48.024;11.726;2022-12-18T03:41:43;-3.80;99.90
9537;DHT22;4807;48.024;11.726;2022-12-18T03:45:11;-3.80;99.90
9537;DHT22;4807;48.024;11.726;2022-12-18T03:48:31;-3.80;99.90
9537;DHT22;4807;48.024;11.726;2022-12-18T03:51:51;-3.80;99.90
9537;DHT22;4807;48.024;11.726;2022-12-18T03:55:05;-3.70;99.90
9537;DHT22;4807;48.024;11.726;2022-12-18T03:58:20;-3.80;99.90
9537;DHT22;4807;48.024;11.726;2022-12-18T04:01:48;-3.80;99.90
9537;DHT22;4807;48.024;11.726;2022-12-18T04:05:06;-3.70;99.90
9537;DHT22;4807;48.024;11.726;2022-12-18T04:08:20;-3.80;99.90
9537;DHT22;4807;48.024;11.726;2022-12-18T04:11:40;-3.80;99.90
9537;DHT22;4807;48.024;11.726;2022-12-18T04:14:52;-3.80;99.90
9537;DHT22;4807;48.024;11.726;2022-12-18T04:18:01;-3.80;99.90
9537;DHT22;4807;48.024;11.726;2022-12-18T04:21:20;-3.90;99.90
9537;DHT22;4807;48.024;11.726;2022-12-18T04:24:31;-3.90;99.90
9537;DHT22;4807;48.024;11.726;2022-12-18T04:27:50;-4.00;99.90
9537;DHT22;4807;48.024;11.726;2022-12-18T04:30:58;-3.90;99.90
9537;DHT22;4807;48.024;11.726;2022-12-18T04:34:07;-3.90;99.90
9537;DHT22;4807;48.024;11.726;2022-12-18T04:37:25;-3.90;99.90
9537;DHT22;4807;48.024;11.726;2022-12-18T04:40:34;-4.00;99.90
9537;DHT22;4807;48.024;11.726;2022-12-18T04:43:48;-4.10;99.90
9537;DHT22;4807;48.024;11.726;2022-12-18T04:46:56;-4.00;99.90
9537;DHT22;4807;48.024;11.726;2022-12-18T04:50:05;-4.10;99.90
9537;DHT22;4807;48.024;11.726;2022-12-18T04:53:16;-4.00;99.90
9537;DHT22;4807;48.024;11.726;2022-12-18T04:56:24;-4.00;99.90
9537;DHT22;4807;48.024;11.726;2022-12-18T04:59:33;-4.00;99.90
9537;DHT22;4807;48.024;11.726;2022-12-18T05:02:41;-4.00;99.90
9537;DHT22;4807;48.024;11.726;2022-12-18T05:05:51;-4.00;99.90
9537;DHT22;4807;48.024;11.726;2022-12-18T05:09:01;-3.90;99.90
9537;DHT22;4807;48.024;11.726;2022-12-18T05:12:12;-4.00;99.90
9537;DHT22;4807;48.024;11.726;2022-12-18T05:15:20;-4.00;99.90
9537;DHT22;4807;48.024;11.726;2022-12-18T05:18:29;-4.00;99.90
9537;DHT22;4807;48.024;11.726;2022-12-18T05:21:37;-4.00;99.90
9537;DHT22;4807;48.024;11.726;2022-12-18T05:24:48;-4.00;99.90
9537;DHT22;4807;48.024;11.726;2022-12-18T05:27:56;-3.90;99.90
9537;DHT22;4807;48.024;11.726;2022-12-18T05:31:05;-4.00;99.90
9537;DHT22;4807;48.024;11.726;2022-12-18T05:34:14;-3.90;99.90
9537;DHT22;4807;48.024;11.726;2022-12-18T05:37:23;-3.80;99.90
9537;DHT22;4807;48.024;11.726;2022-12-18T05:40:32;-3.90;99.90
9537;DHT22;4807;48.024;11.726;2022-12-18T05:43:42;-3.90;99.90
9537;DHT22;4807;48.024;11.726;2022-12-18T05:46:51;-3.90;99.90
9537;DHT22;4807;48.024;11.726;2022-12-18T05:50:00;-4.00;99.90
9537;DHT22;4807;48.024;11.726;2022-12-18T05:53:08;-4.00;99.90
9537;DHT22;4807;48.024;11.726;2022-12-18T05:56:21;-4.00;99.90
9537;DHT22;4807;48.024;11.726;2022-12-18T05:59:30;-4.00;99.90
9537;DHT22;4807;48.024;11.726;2022-12-18T06:02:39;-4.00;99.90
9537;DHT22;4807;48.024;11.726;2022-12-18T06:05:48;-4.00;99.90
9537;DHT22;4807;48.024;11.726;2022-12-18T06:08:57;-4.00;99.90
9537;DHT22;4807;48.024;11.726;2022-12-18T06:12:08;-4.10;99.90
9537;DHT22;4807;48.024;11.726;2022-12-18T06:15:17;-4.00;99.90
9537;DHT22;4807;48.024;11.726;2022-12-18T06:18:25;-4.00;99.90
9537;DHT22;4807;48.024;11.726;2022-12-18T06:21:34;-4.00;99.90
9537;DHT22;4807;48.024;11.726;2022-12-18T06:24:43;-4.10;99.90
9537;DHT22;4807;48.024;11.726;2022-12-18T06:27:53;-4.10;99.90
9537;DHT22;4807;48.024;11.726;2022-12-18T06:31:03;-4.20;99.90
9537;DHT22;4807;48.024;11.726;2022-12-18T06:34:12;-4.20;99.90
9537;DHT22;4807;48.024;11.726;2022-12-18T06:37:21;-4.30;99.90
9537;DHT22;4807;48.024;11.726;2022-12-18T06:40:32;-4.30;99.90
9537;DHT22;4807;48.024;11.726;2022-12-18T06:43:42;-4.30;99.90
9537;DHT22;4807;48.024;11.726;2022-12-18T06:46:51;-4.40;99.90
9537;DHT22;4807;48.024;11.726;2022-12-18T06:50:01;-4.40;99.90
9537;DHT22;4807;48.024;11.726;2022-12-18T06:53:09;-4.40;99.90
9537;DHT22;4807;48.024;11.726;2022-12-18T06:56:18;-4.40;99.90
9537;DHT22;4807;48.024;11.726;2022-12-18T06:59:28;-4.40;99.90
9537;DHT22;4807;48.024;11.726;2022-12-18T07:02:36;-4.40;99.90
9537;DHT22;4807;48.024;11.726;2022-12-18T07:05:45;-2.00;99.90
9537;DHT22;4807;48.024;11.726;2022-12-18T07:08:54;-4.30;99.90
9537;DHT22;4807;48.024;11.726;2022-12-18T07:12:03;-4.20;99.90
9537;DHT22;4807;48.024;11.726;2022-12-18T07:15:17;-4.30;99.90
9537;DHT22;4807;48.024;11.726;2022-12-18T07:18:25;-4.20;99.90
9537;DHT22;4807;48.024;11.726;2022-12-18T07:21:34;-4.30;99.90
9537;DHT22;4807;48.024;11.726;2022-12-18T07:24:43;-4.30;99.90
9537;DHT22;4807;48.024;11.726;2022-12-18T07:27:51;-4.40;99.90
9537;DHT22;4807;48.024;11.726;2022-12-18T07:31:02;-4.30;99.90
9537;DHT22;4807;48.024;11.726;2022-12-18T07:34:13;-4.30;99.90
9537;DHT22;4807;48.024;11.726;2022-12-18T07:37:22;-4.30;99.90
9537;DHT22;4807;48.024;11.726;2022-12-18T07:40:31;-4.20;99.90
9537;DHT22;4807;48.024;11.726;2022-12-18T07:43:40;-4.10;99.90
9537;DHT22;4807;48.024;11.726;2022-12-18T07:46:52;-4.10;99.90
9537;DHT22;4807;48.024;11.726;2022-12-18T07:50:00;-4.00;99.90
9537;DHT22;4807;48.024;11.726;2022-12-18T07:53:09;-3.90;99.90
9537;DHT22;4807;48.024;11.726;2022-12-18T07:56:18;-3.90;99.90
9537;DHT22;4807;48.024;11.726;2022-12-18T07:59:37;-3.80;99.90
9537;DHT22;4807;48.024;11.726;2022-12-18T08:02:47;-3.80;99.90
9537;DHT22;4807;48.024;11.726;2022-12-18T08:05:59;-3.80;99.90
9537;DHT22;4807;48.024;11.726;2022-12-18T08:09:10;-3.80;99.90
9537;DHT22;4807;48.024;11.726;2022-12-18T08:12:18;-3.70;99.90
9537;DHT22;4807;48.024;11.726;2022-12-18T08:15:28;-3.60;99.90
9537;DHT22;4807;48.024;11.726;2022-12-18T08:18:37;-3.60;99.90
9537;DHT22;4807;48.024;11.726;2022-12-18T08:21:46;-3.40;99.90
9537;DHT22;4807;48.024;11.726;2022-12-18T08:24:54;-3.50;99.90
9537;DHT22;4807;48.024;11.726;2022-12-18T08:28:03;-3.50;99.90
9537;DHT22;4807;48.024;11.726;2022-12-18T08:31:12;-3.50;99.90
9537;DHT22;4807;48.024;11.726;2022-12-18T08:34:22;-3.40;99.90
9537;DHT22;4807;48.024;11.726;2022-12-18T08:37:30;-3.30;99.90
9537;DHT22;4807;48.024;11.726;2022-12-18T08:40:39;-3.30;99.90
9537;DHT22;4807;48.024;11.726;2022-12-18T08:43:47;-3.30;99.90
9537;DHT22;4807;48.024;11.726;2022-12-18T08:47:13;-3.20;99.90
9537;DHT22;4807;48.024;11.726;2022-12-18T08:50:23;-3.20;99.90
9537;DHT22;4807;48.024;11.726;2022-12-18T08:53:32;-3.10;99.90
9537;DHT22;4807;48.024;11.726;2022-12-18T08:56:41;-3.10;99.90
9537;DHT22;4807;48.024;11.726;2022-12-18T08:59:50;-3.10;99.90
9537;DHT22;4807;48.024;11.726;2022-12-18T09:02:58;-3.00;99.90
9537;DHT22;4807;48.024;11.726;2022-12-18T09:06:13;-3.00;99.90
9537;DHT22;4807;48.024;11.726;2022-12-18T09:09:23;-3.10;99.90
9537;DHT22;4807;48.024;11.726;2022-12-18T09:12:31;-3.30;99.90
9537;DHT22;4807;48.024;11.726;2022-12-18T09:15:41;-3.30;99.90
9537;DHT22;4807;48.024;11.726;2022-12-18T09:18:51;-3.10;99.90
9537;DHT22;4807;48.024;11.726;2022-12-18T09:22:02;-3.00;99.90
9537;DHT22;4807;48.024;11.726;2022-12-18T09:25:11;-3.00;99.90
9537;DHT22;4807;48.024;11.726;2022-12-18T09:28:20;-2.80;99.90
9537;DHT22;4807;48.024;11.726;2022-12-18T09:31:29;-2.60;99.90
9537;DHT22;4807;48.024;11.726;2022-12-18T09:34:37;-2.40;99.90
9537;DHT22;4807;48.024;11.726;2022-12-18T09:37:48;-2.20;99.90
9537;DHT22;4807;48.024;11.726;2022-12-18T09:40:59;-2.10;99.90
9537;DHT22;4807;48.024;11.726;2022-12-18T09:44:24;-2.00;99.90
9537;DHT22;4807;48.024;11.726;2022-12-18T09:47:37;-2.00;99.90
9537;DHT22;4807;48.024;11.726;2022-12-18T09:50:48;-2.00;99.90
9537;DHT22;4807;48.024;11.726;2022-12-18T09:54:03;-2.10;99.90
9537;DHT22;4807;48.024;11.726;2022-12-18T09:57:18;-2.20;99.90
9537;DHT22;4807;48.024;11.726;2022-12-18T10:00:28;-2.20;99.90
9537;DHT22;4807;48.024;11.726;2022-12-18T10:03:37;-2.10;99.90
9537;DHT22;4807;48.024;11.726;2022-12-18T10:06:51;-1.80;99.90
9537;DHT22;4807;48.024;11.726;2022-12-18T10:10:09;-1.70;99.90
9537;DHT22;4807;48.024;11.726;2022-12-18T10:13:33;-1.70;99.90
9537;DHT22;4807;48.024;11.726;2022-12-18T10:16:52;-1.70;99.90
9537;DHT22;4807;48.024;11.726;2022-12-18T10:20:13;-1.60;99.90
9537;DHT22;4807;48.024;11.726;2022-12-18T10:23:33;-1.70;99.90
9537;DHT22;4807;48.024;11.726;2022-12-18T10:27:08;-1.60;99.90
9537;DHT22;4807;48.024;11.726;2022-12-18T10:30:24;-1.50;99.90
9537;DHT22;4807;48.024;11.726;2022-12-18T10:33:35;-1.50;99.90
9537;DHT22;4807;48.024;11.726;2022-12-18T10:36:43;-1.40;99.90
9537;DHT22;4807;48.024;11.726;2022-12-18T10:40:08;-1.30;99.90
9537;DHT22;4807;48.024;11.726;2022-12-18T10:43:30;-1.30;99.90
9537;DHT22;4807;48.024;11.726;2022-12-18T10:46:41;-1.40;99.70
9537;DHT22;4807;48.024;11.726;2022-12-18T10:49:52;-1.60;99.60
9537;DHT22;4807;48.024;11.726;2022-12-18T10:53:04;-1.60;99.70
9537;DHT22;4807;48.024;11.726;2022-12-18T10:56:19;-1.60;99.90
9537;DHT22;4807;48.024;11.726;2022-12-18T10:59:50;-1.60;99.90
9537;DHT22;4807;48.024;11.726;2022-12-18T11:03:00;-1.70;99.90
9537;DHT22;4807;48.024;11.726;2022-12-18T11:06:12;-1.70;99.90
9537;DHT22;4807;48.024;11.726;2022-12-18T11:09:23;-2.00;99.90
9537;DHT22;4807;48.024;11.726;2022-12-18T11:12:33;-2.10;99.90
9537;DHT22;4807;48.024;11.726;2022-12-18T11:15:42;-2.00;99.90
9537;DHT22;4807;48.024;11.726;2022-12-18T11:18:52;-1.90;99.90
9537;DHT22;4807;48.024;11.726;2022-12-18T11:22:16;-2.00;99.90
9537;DHT22;4807;48.024;11.726;2022-12-18T11:25:29;-1.90;99.90
9537;DHT22;4807;48.024;11.726;2022-12-18T11:28:44;-1.90;99.90
9537;DHT22;4807;48.024;11.726;2022-12-18T11:35:49;-2.10;99.90
9537;DHT22;4807;48.024;11.726;2022-12-18T11:39:07;-2.20;99.90
9537;DHT22;4807;48.024;11.726;2022-12-18T11:42:25;-2.50;99.90
9537;DHT22;4807;48.024;11.726;2022-12-18T11:45:47;-2.70;99.90
9537;DHT22;4807;48.024;11.726;2022-12-18T11:49:09;-2.50;99.90
9537;DHT22;4807;48.024;11.726;2022-12-18T11:52:24;-2.80;99.90
9537;DHT22;4807;48.024;11.726;2022-12-18T11:55:50;-2.80;99.90
9537;DHT22;4807;48.024;11.726;2022-12-18T11:59:18;-2.60;99.90
9537;DHT22;4807;48.024;11.726;2022-12-18T12:03:03;-2.60;99.90
9537;DHT22;4807;48.024;11.726;2022-12-18T12:06:33;-2.50;99.90
9537;DHT22;4807;48.024;11.726;2022-12-18T12:09:55;-2.80;99.90
9537;DHT22;4807;48.024;11.726;2022-12-18T12:13:28;-3.10;99.90
9537;DHT22;4807;48.024;11.726;2022-12-18T12:16:50;-3.00;99.90
9537;DHT22;4807;48.024;11.726;2022-12-18T12:20:10;-2.90;99.90
9537;DHT22;4807;48.024;11.726;2022-12-18T12:23:37;-2.80;99.90
9537;DHT22;4807;48.024;11.726;2022-12-18T12:27:04;-2.50;99.90
9537;DHT22;4807;48.024;11.726;2022-12-18T12:30:30;-2.00;99.90
9537;DHT22;4807;48.024;11.726;2022-12-18T12:33:51;-1.70;99.90
9537;DHT22;4807;48.024;11.726;2022-12-18T12:37:18;-1.60;99.90
9537;DHT22;4807;48.024;11.726;2022-12-18T12:40:41;-1.60;99.90
9537;DHT22;4807;48.024;11.726;2022-12-18T12:44:09;-1.60;99.90
9537;DHT22;4807;48.024;11.726;2022-12-18T12:47:27;-1.50;99.90
9537;DHT22;4807;48.024;11.726;2022-12-18T12:50:41;-1.50;99.90
9537;DHT22;4807;48.024;11.726;2022-12-18T12:53:50;-1.40;99.90
9537;DHT22;4807;48.024;11.726;2022-12-18T12:57:11;0.00;99.90
9537;DHT22;4807;48.024;11.726;2022-12-18T13:00:34;-1.70;99.90
9537;DHT22;4807;48.024;11.726;2022-12-18T13:03:54;-1.70;99.90
9537;DHT22;4807;48.024;11.726;2022-12-18T13:07:15;-1.70;99.90
9537;DHT22;4807;48.024;11.726;2022-12-18T13:10:39;-1.80;99.90
9537;DHT22;4807;48.024;11.726;2022-12-18T13:13:54;-1.90;99.90
9537;DHT22;4807;48.024;11.726;2022-12-18T13:17:28;-1.80;99.90
9537;DHT22;4807;48.024;11.726;2022-12-18T13:20:40;-1.80;99.90
9537;DHT22;4807;48.024;11.726;2022-12-18T13:24:15;-1.90;99.90
9537;DHT22;4807;48.024;11.726;2022-12-18T13:28:00;-1.90;99.90
9537;DHT22;4807;48.024;11.726;2022-12-18T13:32:19;-2.60;99.90
9537;DHT22;4807;48.024;11.726;2022-12-18T13:35:41;-2.40;99.90
9537;DHT22;4807;48.024;11.726;2022-12-18T13:39:34;-2.50;99.90
9537;DHT22;4807;48.024;11.726;2022-12-18T13:46:24;-3.10;99.90
9537;DHT22;4807;48.024;11.726;2022-12-18T13:49:39;-3.30;99.90
9537;DHT22;4807;48.024;11.726;2022-12-18T13:52:50;-3.70;99.90
9537;DHT22;4807;48.024;11.726;2022-12-18T13:56:00;-3.70;99.90
9537;DHT22;4807;48.024;11.726;2022-12-18T13:59:15;-3.70;99.90
9537;DHT22;4807;48.024;11.726;2022-12-18T14:02:30;-3.80;99.90
9537;DHT22;4807;48.024;11.726;2022-12-18T14:05:44;-3.70;99.90
9537;DHT22;4807;48.024;11.726;2022-12-18T14:08:54;-3.70;99.90
9537;DHT22;4807;48.024;11.726;2022-12-18T14:12:03;-3.60;99.90
9537;DHT22;4807;48.024;11.726;2022-12-18T14:15:35;-3.60;99.90
9537;DHT22;4807;48.024;11.726;2022-12-18T14:18:53;-3.50;99.90
9537;DHT22;4807;48.024;11.726;2022-12-18T14:22:17;-3.50;99.90
9537;DHT22;4807;48.024;11.726;2022-12-18T14:25:28;-3.50;99.90
9537;DHT22;4807;48.024;11.726;2022-12-18T14:28:43;-3.50;99.90
9537;DHT22;4807;48.024;11.726;2022-12-18T14:32:10;-3.50;99.90
9537;DHT22;4807;48.024;11.726;2022-12-18T14:35:24;-3.60;99.90
9537;DHT22;4807;48.024;11.726;2022-12-18T14:38:36;-3.70;99.90
9537;DHT22;4807;48.024;11.726;2022-12-18T14:41:45;-3.70;99.90
9537;DHT22;4807;48.024;11.726;2022-12-18T14:48:48;-3.60;99.90
9537;DHT22;4807;48.024;11.726;2022-12-18T14:51:58;-3.70;99.90
9537;DHT22;4807;48.024;11.726;2022-12-18T14:55:16;-3.80;99.90
9537;DHT22;4807;48.024;11.726;2022-12-18T14:58:26;-3.90;99.90
9537;DHT22;4807;48.024;11.726;2022-12-18T15:01:36;-3.80;99.90
9537;DHT22;4807;48.024;11.726;2022-12-18T15:04:46;-3.80;99.90
9537;DHT22;4807;48.024;11.726;2022-12-18T15:07:57;-3.90;99.90
9537;DHT22;4807;48.024;11.726;2022-12-18T15:14:55;-4.10;99.90
9537;DHT22;4807;48.024;11.726;2022-12-18T15:18:05;-4.00;99.90
9537;DHT22;4807;48.024;11.726;2022-12-18T15:21:21;-4.10;99.90
9537;DHT22;4807;48.024;11.726;2022-12-18T15:24:31;-4.10;99.90
9537;DHT22;4807;48.024;11.726;2022-12-18T15:27:47;-4.10;99.90
9537;DHT22;4807;48.024;11.726;2022-12-18T15:31:05;-4.20;99.90
9537;DHT22;4807;48.024;11.726;2022-12-18T15:34:28;-4.30;99.90
9537;DHT22;4807;48.024;11.726;2022-12-18T15:37:37;-4.30;99.90
9537;DHT22;4807;48.024;11.726;2022-12-18T15:40:46;-4.40;99.90
9537;DHT22;4807;48.024;11.726;2022-12-18T15:43:56;-4.40;99.90
9537;DHT22;4807;48.024;11.726;2022-12-18T15:47:11;-4.40;99.90
9537;DHT22;4807;48.024;11.726;2022-12-18T15:50:20;-4.40;99.90
9537;DHT22;4807;48.024;11.726;2022-12-18T15:53:32;-4.30;99.90
9537;DHT22;4807;48.024;11.726;2022-12-18T15:56:41;-4.30;99.90
9537;DHT22;4807;48.024;11.726;2022-12-18T16:00:12;-4.20;99.90
9537;DHT22;4807;48.024;11.726;2022-12-18T16:03:21;-4.30;99.90
9537;DHT22;4807;48.024;11.726;2022-12-18T16:06:30;-4.30;99.90
9537;DHT22;4807;48.024;11.726;2022-12-18T16:09:58;-4.30;99.90
9537;DHT22;4807;48.024;11.726;2022-12-18T16:13:10;-4.30;99.90
9537;DHT22;4807;48.024;11.726;2022-12-18T16:16:20;-4.30;99.90
9537;DHT22;4807;48.024;11.726;2022-12-18T16:19:30;-4.40;99.90
9537;DHT22;4807;48.024;11.726;2022-12-18T16:22:38;-4.40;99.90
9537;DHT22;4807;48.024;11.726;2022-12-18T16:25:47;-4.40;99.90
9537;DHT22;4807;48.024;11.726;2022-12-18T16:28:55;-4.50;99.90
9537;DHT22;4807;48.024;11.726;2022-12-18T16:32:05;-4.40;99.90
9537;DHT22;4807;48.024;11.726;2022-12-18T16:35:15;-4.40;99.90
9537;DHT22;4807;48.024;11.726;2022-12-18T16:38:24;-4.40;99.90
9537;DHT22;4807;48.024;11.726;2022-12-18T16:41:32;-4.50;99.90
9537;DHT22;4807;48.024;11.726;2022-12-18T16:44:42;-4.40;99.90
9537;DHT22;4807;48.024;11.726;2022-12-18T16:47:53;-4.40;99.90
9537;DHT22;4807;48.024;11.726;2022-12-18T16:51:03;-4.50;99.90
9537;DHT22;4807;48.024;11.726;2022-12-18T16:54:12;-4.50;99.90
9537;DHT22;4807;48.024;11.726;2022-12-18T16:57:25;-4.50;99.90
9537;DHT22;4807;48.024;11.726;2022-12-18T17:00:37;-4.50;99.90
9537;DHT22;4807;48.024;11.726;2022-12-18T17:03:52;-4.50;99.90
9537;DHT22;4807;48.024;11.726;2022-12-18T17:07:01;-4.50;99.90
9537;DHT22;4807;48.024;11.726;2022-12-18T17:10:10;-4.50;99.90
9537;DHT22;4807;48.024;11.726;2022-12-18T17:13:18;-4.50;99.90
9537;DHT22;4807;48.024;11.726;2022-12-18T17:16:31;-4.50;99.90
9537;DHT22;4807;48.024;11.726;2022-12-18T17:19:42;-4.60;99.90
9537;DHT22;4807;48.024;11.726;2022-12-18T17:22:50;-4.60;99.90
9537;DHT22;4807;48.024;11.726;2022-12-18T17:26:00;-4.60;99.90
9537;DHT22;4807;48.024;11.726;2022-12-18T17:29:09;-4.60;99.90
9537;DHT22;4807;48.024;11.726;2022-12-18T17:32:24;-4.60;99.90
9537;DHT22;4807;48.024;11.726;2022-12-18T17:35:34;-4.50;99.90
9537;DHT22;4807;48.024;11.726;2022-12-18T17:38:48;-4.50;99.90
9537;DHT22;4807;48.024;11.726;2022-12-18T17:41:58;-4.60;99.90
9537;DHT22;4807;48.024;11.726;2022-12-18T17:45:08;-4.50;99.90
9537;DHT22;4807;48.024;11.726;2022-12-18T17:48:17;-4.50;99.90
9537;DHT22;4807;48.024;11.726;2022-12-18T17:51:27;-4.50;99.90
9537;DHT22;4807;48.024;11.726;2022-12-18T17:54:36;-4.60;99.90
9537;DHT22;4807;48.024;11.726;2022-12-18T17:57:47;-4.60;99.90
9537;DHT22;4807;48.024;11.726;2022-12-18T18:00:55;-4.60;99.90
9537;DHT22;4807;48.024;11.726;2022-12-18T18:04:04;-4.50;99.90
9537;DHT22;4807;48.024;11.726;2022-12-18T18:07:15;-4.60;99.90
9537;DHT22;4807;48.024;11.726;2022-12-18T18:10:23;-4.60;99.90
9537;DHT22;4807;48.024;11.726;2022-12-18T18:13:32;-4.50;99.90
9537;DHT22;4807;48.024;11.726;2022-12-18T18:16:59;-4.50;99.90
9537;DHT22;4807;48.024;11.726;2022-12-18T18:20:10;-4.60;99.90
9537;DHT22;4807;48.024;11.726;2022-12-18T18:23:30;-4.60;99.90
9537;DHT22;4807;48.024;11.726;2022-12-18T18:26:39;-4.50;99.90
9537;DHT22;4807;48.024;11.726;2022-12-18T18:29:48;-4.60;99.90
9537;DHT22;4807;48.024;11.726;2022-12-18T18:32:56;-4.60;99.90
9537;DHT22;4807;48.024;11.726;2022-12-18T18:36:08;-4.70;99.90
9537;DHT22;4807;48.024;11.726;2022-12-18T18:39:19;-4.70;99.90
9537;DHT22;4807;48.024;11.726;2022-12-18T18:42:28;-4.60;99.90
9537;DHT22;4807;48.024;11.726;2022-12-18T18:45:37;-4.60;99.90
9537;DHT22;4807;48.024;11.726;2022-12-18T18:48:47;-4.70;99.90
9537;DHT22;4807;48.024;11.726;2022-12-18T18:51:56;-4.70;99.90
9537;DHT22;4807;48.024;11.726;2022-12-18T18:55:07;-4.80;99.90
9537;DHT22;4807;48.024;11.726;2022-12-18T18:58:31;-4.80;99.90
9537;DHT22;4807;48.024;11.726;2022-12-18T19:01:39;-4.70;99.90
9537;DHT22;4807;48.024;11.726;2022-12-18T19:04:48;-4.70;99.90
9537;DHT22;4807;48.024;11.726;2022-12-18T19:07:56;-4.70;99.90
9537;DHT22;4807;48.024;11.726;2022-12-18T19:11:08;-4.70;99.90
9537;DHT22;4807;48.024;11.726;2022-12-18T19:14:42;-4.70;99.90
9537;DHT22;4807;48.024;11.726;2022-12-18T19:17:50;-4.70;99.90
9537;DHT22;4807;48.024;11.726;2022-12-18T19:21:02;-7.40;99.90
9537;DHT22;4807;48.024;11.726;2022-12-18T19:24:11;-4.70;99.90
9537;DHT22;4807;48.024;11.726;2022-12-18T19:27:21;-4.80;99.90
9537;DHT22;4807;48.024;11.726;2022-12-18T19:30:29;-4.80;99.90
9537;DHT22;4807;48.024;11.726;2022-12-18T19:33:40;-4.80;99.90
9537;DHT22;4807;48.024;11.726;2022-12-18T19:36:50;-4.80;99.90
9537;DHT22;4807;48.024;11.726;2022-12-18T19:40:06;-4.90;99.90
9537;DHT22;4807;48.024;11.726;2022-12-18T19:43:19;-4.90;99.90
9537;DHT22;4807;48.024;11.726;2022-12-18T19:46:29;-4.90;99.90
9537;DHT22;4807;48.024;11.726;2022-12-18T19:49:37;-4.80;99.90
9537;DHT22;4807;48.024;11.726;2022-12-18T19:52:45;-4.90;99.90
9537;DHT22;4807;48.024;11.726;2022-12-18T19:55:54;-4.90;99.90
9537;DHT22;4807;48.024;11.726;2022-12-18T19:59:04;-4.80;99.90
9537;DHT22;4807;48.024;11.726;2022-12-18T20:02:13;-4.80;99.90
9537;DHT22;4807;48.024;11.726;2022-12-18T20:05:22;-4.80;99.90
9537;DHT22;4807;48.024;11.726;2022-12-18T20:08:31;-4.90;99.90
9537;DHT22;4807;48.024;11.726;2022-12-18T20:11:39;-4.90;99.90
9537;DHT22;4807;48.024;11.726;2022-12-18T20:14:50;-4.90;99.90
9537;DHT22;4807;48.024;11.726;2022-12-18T20:17:58;-4.90;99.90
9537;DHT22;4807;48.024;11.726;2022-12-18T20:21:06;-4.90;99.90
9537;DHT22;4807;48.024;11.726;2022-12-18T20:24:19;-4.90;99.90
9537;DHT22;4807;48.024;11.726;2022-12-18T20:27:28;-4.80;99.90
9537;DHT22;4807;48.024;11.726;2022-12-18T20:30:38;-4.80;99.90
9537;DHT22;4807;48.024;11.726;2022-12-18T20:33:46;-4.80;99.90
9537;DHT22;4807;48.024;11.726;2022-12-18T20:36:57;-4.80;99.90
9537;DHT22;4807;48.024;11.726;2022-12-18T20:40:07;-4.80;99.90
9537;DHT22;4807;48.024;11.726;2022-12-18T20:43:16;-4.80;99.90
9537;DHT22;4807;48.024;11.726;2022-12-18T20:46:26;-4.80;99.90
9537;DHT22;4807;48.024;11.726;2022-12-18T20:49:34;-4.90;99.90
9537;DHT22;4807;48.024;11.726;2022-12-18T20:52:46;-4.90;99.90
9537;DHT22;4807;48.024;11.726;2022-12-18T20:55:55;-4.90;99.90
9537;DHT22;4807;48.024;11.726;2022-12-18T20:59:03;-4.90;99.90